sensor_id;sensor_type;location;lat;lon;timestamp;P1;durP1;ratioP1;P2;durP2;ratioP2
16967;SDS011;64862;54.398;10.126;2023-08-17T00:07:25;4.25;;;1.25;;
16967;SDS011;64862;54.398;10.126;2023-08-17T00:17:28;5.50;;;1.38;;
16967;SDS011;64862;54.398;10.126;2023-08-17T00:27:31;6.07;;;1.27;;
16967;SDS011;64862;54.398;10.126;2023-08-17T00:37:34;4.82;;;1.15;;
16967;SDS011;64862;54.398;10.126;2023-08-17T00:47:36;4.22;;;1.65;;
16967;SDS011;64862;54.398;10.126;2023-08-17T00:57:40;4.00;;;1.50;;
16967;SDS011;64862;54.398;10.126;2023-08-17T01:07:42;5.57;;;1.50;;
16967;SDS011;64862;54.398;10.126;2023-08-17T01:17:48;5.65;;;1.67;;
16967;SDS011;64862;54.398;10.126;2023-08-17T01:27:57;4.70;;;1.60;;
16967;SDS011;64862;54.398;10.126;2023-08-17T01:38:02;4.53;;;1.55;;
16967;SDS011;64862;54.398;10.126;2023-08-17T01:48:09;6.88;;;1.70;;
16967;SDS011;64862;54.398;10.126;2023-08-17T01:58:13;5.10;;;1.60;;
16967;SDS011;64862;54.398;10.126;2023-08-17T02:08:16;7.95;;;1.50;;
16967;SDS011;64862;54.398;10.126;2023-08-17T02:18:19;4.80;;;1.17;;
16967;SDS011;64862;54.398;10.126;2023-08-17T02:28:23;3.80;;;1.10;;
16967;SDS011;64862;54.398;10.126;2023-08-17T02:38:26;6.13;;;1.40;;
16967;SDS011;64862;54.398;10.126;2023-08-17T02:48:30;7.55;;;1.42;;
16967;SDS011;64862;54.398;10.126;2023-08-17T02:58:32;8.07;;;1.23;;
16967;SDS011;64862;54.398;10.126;2023-08-17T03:08:36;3.95;;;0.90;;
16967;SDS011;64862;54.398;10.126;2023-08-17T03:18:38;5.32;;;1.10;;
16967;SDS011;64862;54.398;10.126;2023-08-17T03:28:42;8.60;;;1.23;;
16967;SDS011;64862;54.398;10.126;2023-08-17T03:38:44;5.05;;;1.02;;
16967;SDS011;64862;54.398;10.126;2023-08-17T03:48:47;7.55;;;1.10;;
16967;SDS011;64862;54.398;10.126;2023-08-17T03:58:50;3.95;;;1.20;;
16967;SDS011;64862;54.398;10.126;2023-08-17T04:08:55;3.83;;;0.98;;
16967;SDS011;64862;54.398;10.126;2023-08-17T04:18:58;5.45;;;1.13;;
16967;SDS011;64862;54.398;10.126;2023-08-17T04:29:01;5.25;;;0.90;;
16967;SDS011;64862;54.398;10.126;2023-08-17T04:39:04;3.78;;;0.98;;
16967;SDS011;64862;54.398;10.126;2023-08-17T04:49:07;3.60;;;0.95;;
16967;SDS011;64862;54.398;10.126;2023-08-17T04:59:09;5.88;;;1.10;;
16967;SDS011;64862;54.398;10.126;2023-08-17T05:09:14;3.08;;;0.85;;
16967;SDS011;64862;54.398;10.126;2023-08-17T05:19:16;5.63;;;1.08;;
16967;SDS011;64862;54.398;10.126;2023-08-17T05:29:19;4.53;;;0.90;;
16967;SDS011;64862;54.398;10.126;2023-08-17T05:39:21;5.53;;;1.20;;
16967;SDS011;64862;54.398;10.126;2023-08-17T05:49:26;2.33;;;0.80;;
16967;SDS011;64862;54.398;10.126;2023-08-17T05:59:29;4.53;;;1.15;;
16967;SDS011;64862;54.398;10.126;2023-08-17T06:09:32;5.88;;;0.98;;
16967;SDS011;64862;54.398;10.126;2023-08-17T06:19:34;5.40;;;1.25;;
16967;SDS011;64862;54.398;10.126;2023-08-17T06:29:37;3.40;;;1.05;;
16967;SDS011;64862;54.398;10.126;2023-08-17T06:39:40;4.97;;;0.90;;
16967;SDS011;64862;54.398;10.126;2023-08-17T06:49:43;3.83;;;1.00;;
16967;SDS011;64862;54.398;10.126;2023-08-17T06:59:46;5.97;;;1.08;;
16967;SDS011;64862;54.398;10.126;2023-08-17T07:09:49;5.07;;;1.00;;
16967;SDS011;64862;54.398;10.126;2023-08-17T07:19:51;4.68;;;1.10;;
16967;SDS011;64862;54.398;10.126;2023-08-17T07:29:54;6.32;;;1.30;;
16967;SDS011;64862;54.398;10.126;2023-08-17T07:39:56;3.60;;;1.40;;
16967;SDS011;64862;54.398;10.126;2023-08-17T07:49:59;5.50;;;1.25;;
16967;SDS011;64862;54.398;10.126;2023-08-17T08:00:01;6.00;;;1.40;;
16967;SDS011;64862;54.398;10.126;2023-08-17T08:20:12;5.70;;;2.10;;
16967;SDS011;64862;54.398;10.126;2023-08-17T08:30:15;8.90;;;3.80;;
16967;SDS011;64862;54.398;10.126;2023-08-17T08:40:18;5.57;;;1.27;;
16967;SDS011;64862;54.398;10.126;2023-08-17T08:50:25;5.97;;;1.23;;
16967;SDS011;64862;54.398;10.126;2023-08-17T09:00:30;3.20;;;1.15;;
16967;SDS011;64862;54.398;10.126;2023-08-17T09:10:35;4.65;;;1.10;;
16967;SDS011;64862;54.398;10.126;2023-08-17T09:20:37;4.70;;;1.13;;
16967;SDS011;64862;54.398;10.126;2023-08-17T09:30:50;7.60;;;1.45;;
16967;SDS011;64862;54.398;10.126;2023-08-17T09:40:54;6.57;;;1.40;;
16967;SDS011;64862;54.398;10.126;2023-08-17T09:50:57;3.83;;;1.33;;
16967;SDS011;64862;54.398;10.126;2023-08-17T10:11:07;5.53;;;1.67;;
16967;SDS011;64862;54.398;10.126;2023-08-17T10:21:13;6.00;;;1.48;;
16967;SDS011;64862;54.398;10.126;2023-08-17T10:31:20;4.95;;;1.67;;
16967;SDS011;64862;54.398;10.126;2023-08-17T10:41:22;7.93;;;1.90;;
16967;SDS011;64862;54.398;10.126;2023-08-17T10:51:26;6.18;;;1.95;;
16967;SDS011;64862;54.398;10.126;2023-08-17T11:01:32;7.03;;;2.00;;
16967;SDS011;64862;54.398;10.126;2023-08-17T11:11:39;8.18;;;2.10;;
16967;SDS011;64862;54.398;10.126;2023-08-17T11:21:41;8.55;;;2.03;;
16967;SDS011;64862;54.398;10.126;2023-08-17T11:31:44;6.65;;;1.80;;
16967;SDS011;64862;54.398;10.126;2023-08-17T11:41:46;8.63;;;2.05;;
16967;SDS011;64862;54.398;10.126;2023-08-17T11:51:52;7.72;;;1.67;;
16967;SDS011;64862;54.398;10.126;2023-08-17T12:01:54;10.77;;;2.45;;
16967;SDS011;64862;54.398;10.126;2023-08-17T12:12:00;8.68;;;2.25;;
16967;SDS011;64862;54.398;10.126;2023-08-17T12:22:02;7.63;;;2.33;;
16967;SDS011;64862;54.398;10.126;2023-08-17T12:32:07;6.85;;;2.50;;
16967;SDS011;64862;54.398;10.126;2023-08-17T12:42:09;9.95;;;2.20;;
16967;SDS011;64862;54.398;10.126;2023-08-17T12:52:12;8.13;;;2.13;;
16967;SDS011;64862;54.398;10.126;2023-08-17T13:02:14;7.70;;;1.90;;
16967;SDS011;64862;54.398;10.126;2023-08-17T13:12:17;7.60;;;1.90;;
16967;SDS011;64862;54.398;10.126;2023-08-17T13:22:19;8.38;;;1.98;;
16967;SDS011;64862;54.398;10.126;2023-08-17T13:32:22;8.02;;;1.92;;
16967;SDS011;64862;54.398;10.126;2023-08-17T13:42:25;6.38;;;1.75;;
16967;SDS011;64862;54.398;10.126;2023-08-17T13:52:28;8.73;;;2.58;;
16967;SDS011;64862;54.398;10.126;2023-08-17T14:02:30;6.78;;;2.53;;
16967;SDS011;64862;54.398;10.126;2023-08-17T14:12:34;10.65;;;2.90;;
16967;SDS011;64862;54.398;10.126;2023-08-17T14:22:35;9.43;;;3.00;;
16967;SDS011;64862;54.398;10.126;2023-08-17T14:32:39;10.80;;;3.22;;
16967;SDS011;64862;54.398;10.126;2023-08-17T14:42:44;9.65;;;4.10;;
16967;SDS011;64862;54.398;10.126;2023-08-17T14:52:47;9.77;;;4.57;;
16967;SDS011;64862;54.398;10.126;2023-08-17T15:02:49;12.35;;;5.22;;
16967;SDS011;64862;54.398;10.126;2023-08-17T15:12:54;8.80;;;3.97;;
16967;SDS011;64862;54.398;10.126;2023-08-17T15:22:56;12.02;;;3.70;;
16967;SDS011;64862;54.398;10.126;2023-08-17T15:33:00;12.57;;;3.40;;
16967;SDS011;64862;54.398;10.126;2023-08-17T15:43:02;9.38;;;3.28;;
16967;SDS011;64862;54.398;10.126;2023-08-17T15:53:05;9.88;;;3.13;;
16967;SDS011;64862;54.398;10.126;2023-08-17T16:03:09;12.02;;;3.63;;
16967;SDS011;64862;54.398;10.126;2023-08-17T16:13:13;13.63;;;3.30;;
16967;SDS011;64862;54.398;10.126;2023-08-17T16:23:15;10.35;;;3.50;;
16967;SDS011;64862;54.398;10.126;2023-08-17T16:33:18;10.63;;;3.50;;
16967;SDS011;64862;54.398;10.126;2023-08-17T16:43:20;19.35;;;4.07;;
16967;SDS011;64862;54.398;10.126;2023-08-17T16:53:24;15.77;;;3.65;;
16967;SDS011;64862;54.398;10.126;2023-08-17T17:03:25;15.73;;;4.40;;
16967;SDS011;64862;54.398;10.126;2023-08-17T17:13:29;16.00;;;4.18;;
16967;SDS011;64862;54.398;10.126;2023-08-17T17:23:32;11.02;;;3.33;;
16967;SDS011;64862;54.398;10.126;2023-08-17T17:33:35;13.60;;;4.00;;
16967;SDS011;64862;54.398;10.126;2023-08-17T17:43:37;6.43;;;2.00;;
16967;SDS011;64862;54.398;10.126;2023-08-17T17:53:40;4.95;;;1.92;;
16967;SDS011;64862;54.398;10.126;2023-08-17T18:03:42;9.02;;;2.58;;
16967;SDS011;64862;54.398;10.126;2023-08-17T18:13:45;11.95;;;4.13;;
16967;SDS011;64862;54.398;10.126;2023-08-17T18:23:48;13.35;;;4.43;;
16967;SDS011;64862;54.398;10.126;2023-08-17T18:33:51;18.25;;;4.38;;
16967;SDS011;64862;54.398;10.126;2023-08-17T18:43:55;8.18;;;2.00;;
16967;SDS011;64862;54.398;10.126;2023-08-17T18:53:58;5.85;;;1.70;;
16967;SDS011;64862;54.398;10.126;2023-08-17T19:04:01;5.43;;;2.05;;
16967;SDS011;64862;54.398;10.126;2023-08-17T19:14:04;5.45;;;2.85;;
16967;SDS011;64862;54.398;10.126;2023-08-17T19:24:09;6.83;;;2.60;;
16967;SDS011;64862;54.398;10.126;2023-08-17T19:34:13;5.25;;;2.20;;
16967;SDS011;64862;54.398;10.126;2023-08-17T19:44:15;15.57;;;7.97;;
16967;SDS011;64862;54.398;10.126;2023-08-17T19:54:18;8.50;;;2.22;;
16967;SDS011;64862;54.398;10.126;2023-08-17T20:04:21;8.30;;;2.72;;
16967;SDS011;64862;54.398;10.126;2023-08-17T20:14:25;8.45;;;2.30;;
16967;SDS011;64862;54.398;10.126;2023-08-17T20:24:28;3.55;;;1.90;;
16967;SDS011;64862;54.398;10.126;2023-08-17T20:34:31;5.00;;;1.85;;
16967;SDS011;64862;54.398;10.126;2023-08-17T20:44:34;4.97;;;1.90;;
16967;SDS011;64862;54.398;10.126;2023-08-17T20:54:37;6.10;;;1.48;;
16967;SDS011;64862;54.398;10.126;2023-08-17T21:04:43;5.83;;;2.00;;
16967;SDS011;64862;54.398;10.126;2023-08-17T21:14:46;5.95;;;2.10;;
16967;SDS011;64862;54.398;10.126;2023-08-17T21:24:48;7.65;;;1.90;;
16967;SDS011;64862;54.398;10.126;2023-08-17T21:34:52;5.68;;;1.80;;
16967;SDS011;64862;54.398;10.126;2023-08-17T21:44:54;7.25;;;1.55;;
16967;SDS011;64862;54.398;10.126;2023-08-17T21:54:59;7.65;;;1.98;;
16967;SDS011;64862;54.398;10.126;2023-08-17T22:05:02;7.90;;;1.80;;
16967;SDS011;64862;54.398;10.126;2023-08-17T22:15:06;5.05;;;1.65;;
16967;SDS011;64862;54.398;10.126;2023-08-17T22:25:08;8.57;;;1.88;;
16967;SDS011;64862;54.398;10.126;2023-08-17T22:35:12;8.10;;;1.77;;
16967;SDS011;64862;54.398;10.126;2023-08-17T22:45:14;7.22;;;1.48;;
16967;SDS011;64862;54.398;10.126;2023-08-17T22:55:19;6.45;;;1.30;;
16967;SDS011;64862;54.398;10.126;2023-08-17T23:05:21;3.92;;;1.35;;
16967;SDS011;64862;54.398;10.126;2023-08-17T23:15:25;5.95;;;1.48;;
16967;SDS011;64862;54.398;10.126;2023-08-17T23:25:29;5.15;;;1.50;;
16967;SDS011;64862;54.398;10.126;2023-08-17T23:35:34;7.72;;;1.90;;
16967;SDS011;64862;54.398;10.126;2023-08-17T23:45:36;10.90;;;2.33;;
16967;SDS011;64862;54.398;10.126;2023-08-17T23:55:42;8.70;;;1.98;;
